Date,TemperatureHighF,TemperatureAvgF,TemperatureLowF,DewpointHighF,DewpointAvgF,DewpointLowF,HumidityHigh,HumidityAvg,HumidityLow,PressureMaxIn,PressureMinIn,WindSpeedMaxMPH,WindSpeedAvgMPH,GustSpeedMaxMPH,PrecipitationSumIn
2013-4-1,41.0,29.5,22.6,14.0,6.3,0.0,52,38,21,29.94,29.70,12,3,12,0.00
2013-4-2,44.1,30.9,18.0,12.0,7.8,3.5,65,40,21,30.08,29.94,8,2,8,0.00
2013-4-3,51.3,33.1,13.8,18.2,10.1,4.5,68,43,19,30.19,30.00,8,1,8,0.00
2013-4-4,59.2,42.3,28.8,33.5,23.1,14.5,70,48,30,29.98,29.73,8,2,8,0.00
2013-4-5,51.4,37.7,22.5,26.5,20.4,15.7,79,53,25,30.00,29.84,8,2,8,0.00
2013-4-6,60.6,50.4,33.8,47.2,36.7,13.6,89,61,41,29.87,29.31,9,4,12,0.00
2013-4-7,56.3,42.7,34.3,37.4,31.4,25.9,82,66,41,29.74,29.40,7,2,12,0.00
2013-4-8,60.6,44.2,37.8,43.0,35.5,30.2,84,72,51,29.78,29.47,5,2,8,0.01
2013-4-9,39.4,37.7,33.3,37.0,34.0,28.5,92,86,78,29.86,29.68,5,2,10,0.00
2013-4-10,34.9,33.1,31.6,30.3,29.0,27.9,87,85,76,29.92,29.66,5,1,8,0.01
2013-4-11,37.6,34.8,33.1,34.4,30.3,27.1,88,84,75,29.70,29.37,10,3,14,0.02
2013-4-12,39.6,34.3,32.5,33.5,29.3,26.7,88,82,73,29.55,29.31,5,0,8,0.00
2013-4-13,40.8,34.1,27.3,27.9,24.1,19.0,81,67,53,29.75,29.53,6,1,15,0.00
2013-4-14,47.1,35.2,26.4,38.6,29.4,19.1,84,79,68,29.76,29.36,8,2,13,0.00
2013-4-15,59.5,45.9,33.4,46.0,33.0,24.5,91,64,32,29.76,29.38,11,2,16,0.00
2013-4-16,55.8,40.2,28.4,30.4,25.9,22.4,81,59,32,30.09,29.75,7,2,10,0.00
2013-4-17,41.5,36.8,28.9,36.3,30.9,22.5,90,79,65,30.10,29.64,6,2,9,0.01
2013-4-18,46.6,41.6,37.4,44.4,39.0,31.9,93,90,82,29.64,29.08,6,2,14,0.00
2013-4-19,40.3,34.5,28.6,31.8,24.2,15.7,83,66,47,29.70,29.10,12,4,50,0.00
2013-4-20,51.1,34.9,21.4,23.3,12.8,5.1,76,45,19,30.12,27.01,7,2,12,0.00
2013-4-21,52.9,39.8,24.1,35.1,26.3,12.9,83,59,40,30.22,29.95,9,4,14,0.00
2013-4-22,69.6,54.2,42.6,41.3,37.5,34.0,83,55,32,29.97,29.74,8,3,12,0.00
2013-4-23,57.6,41.9,34.2,45.6,32.5,22.7,90,70,53,29.80,29.67,9,3,15,0.00
2013-4-24,59.7,42.4,27.7,35.5,22.8,14.3,87,51,21,29.81,29.73,7,2,13,0.01
2013-4-25,56.5,42.5,28.9,37.3,30.1,22.0,87,64,33,30.03,29.73,7,2,12,0.00
2013-4-26,76.3,55.7,28.8,46.0,36.2,21.9,80,51,28,30.01,29.86,12,4,17,0.00
2013-4-27,72.7,57.9,41.7,50.2,45.1,38.3,93,65,41,29.98,29.78,7,2,11,0.00
2013-4-28,80.2,56.8,34.7,49.0,40.1,26.3,99,61,22,29.79,29.56,6,1,8,0.00
2013-4-29,77.4,59.1,48.2,58.6,50.9,41.3,93,75,43,29.63,29.46,8,2,11,0.01
2013-4-30,91.8,73.1,60.3,61.2,56.1,46.7,98,61,25,29.71,29.39,11,4,16,0.01